createdAt,value
2022-12-05T00:00:20.781Z,100.00
2022-12-05T00:02:51.088Z,100.00
2022-12-05T00:05:24.086Z,100.00
2022-12-05T00:07:54.452Z,100.00
2022-12-05T00:10:25.311Z,100.00
2022-12-05T00:12:55.854Z,100.00
2022-12-05T00:15:26.377Z,100.00
2022-12-05T00:17:56.737Z,100.00
2022-12-05T00:20:29.587Z,100.00
2022-12-05T00:22:59.923Z,100.00
2022-12-05T00:25:30.365Z,100.00
2022-12-05T00:28:00.740Z,100.00
2022-12-05T00:30:31.090Z,100.00
2022-12-05T00:33:01.548Z,100.00
2022-12-05T00:35:36.763Z,100.00
2022-12-05T00:38:07.093Z,100.00
2022-12-05T00:40:39.159Z,100.00
2022-12-05T00:43:09.470Z,100.00
2022-12-05T00:45:39.783Z,100.00
2022-12-05T00:48:10.223Z,99.97
2022-12-05T00:50:43.213Z,100.00
2022-12-05T00:53:13.416Z,100.00
2022-12-05T00:55:43.733Z,100.00
2022-12-05T00:58:13.993Z,100.00
2022-12-05T01:00:44.312Z,100.00
2022-12-05T01:03:14.650Z,100.00
2022-12-05T01:05:47.544Z,99.62
2022-12-05T01:08:18.014Z,99.22
2022-12-05T01:10:57.245Z,99.15
2022-12-05T01:13:28.612Z,99.00
2022-12-05T01:15:59.029Z,98.28
2022-12-05T01:18:30.365Z,98.05
2022-12-05T01:21:03.442Z,97.97
2022-12-05T01:23:33.761Z,98.03
2022-12-05T01:26:08.626Z,97.94
2022-12-05T01:28:41.062Z,97.54
2022-12-05T01:31:15.179Z,97.45
2022-12-05T01:33:45.563Z,97.29
2022-12-05T01:36:19.045Z,96.90
2022-12-05T01:38:49.802Z,96.43
2022-12-05T01:41:23.777Z,96.41
2022-12-05T01:44:00.173Z,96.01
2022-12-05T01:46:32.598Z,95.71
2022-12-05T01:49:08.559Z,95.46
2022-12-05T01:51:44.674Z,95.45
2022-12-05T01:54:16.179Z,95.12
2022-12-05T01:56:51.441Z,94.95
2022-12-05T01:59:24.985Z,94.61
2022-12-05T02:01:55.255Z,94.99
2022-12-05T02:04:25.780Z,95.36
2022-12-05T02:06:59.108Z,94.96
2022-12-05T02:09:29.420Z,94.38
2022-12-05T02:12:04.102Z,94.28
2022-12-05T02:14:41.322Z,94.55
2022-12-05T02:17:22.792Z,94.10
2022-12-05T02:20:25.261Z,93.90
2022-12-05T02:23:30.988Z,93.83
2022-12-05T02:26:37.170Z,93.78
2022-12-05T02:29:55.092Z,94.14
2022-12-05T02:32:44.340Z,94.56
2022-12-05T02:35:24.707Z,94.80
2022-12-05T02:38:05.646Z,94.82
2022-12-05T02:40:44.653Z,94.76
2022-12-05T02:43:21.620Z,94.80
2022-12-05T02:45:57.556Z,94.97
2022-12-05T02:48:32.333Z,94.79
2022-12-05T02:51:05.190Z,94.96
2022-12-05T02:53:38.395Z,94.65
2022-12-05T02:56:10.651Z,94.14
2022-12-05T02:58:48.819Z,93.97
2022-12-05T03:01:19.989Z,93.72
2022-12-05T03:03:52.677Z,93.19
2022-12-05T03:06:27.220Z,93.95
2022-12-05T03:09:02.261Z,94.57
2022-12-05T03:11:42.892Z,94.30
2022-12-05T03:14:18.216Z,94.16
2022-12-05T03:16:54.931Z,94.10
2022-12-05T03:19:38.200Z,93.95
2022-12-05T03:22:14.073Z,94.42
2022-12-05T03:24:45.355Z,94.53
2022-12-05T03:27:25.762Z,95.21
2022-12-05T03:30:02.145Z,95.53
2022-12-05T03:32:40.821Z,95.34
2022-12-05T03:35:22.691Z,95.43
2022-12-05T03:37:57.612Z,95.12
2022-12-05T03:40:35.678Z,95.34
2022-12-05T03:43:15.030Z,96.08
2022-12-05T03:45:52.310Z,96.24
2022-12-05T03:48:30.324Z,96.60
2022-12-05T03:51:06.659Z,97.07
2022-12-05T03:53:44.707Z,96.75
2022-12-05T03:56:21.919Z,96.19
2022-12-05T03:58:58.638Z,96.34
2022-12-05T04:01:32.841Z,96.09
2022-12-05T04:04:11.499Z,96.35
2022-12-05T04:06:48.911Z,96.31
2022-12-05T04:09:25.968Z,96.34
2022-12-05T04:12:04.336Z,96.21
2022-12-05T04:14:40.243Z,96.60
2022-12-05T04:17:13.709Z,96.73
2022-12-05T04:20:01.239Z,96.85
2022-12-05T04:22:35.088Z,96.92
2022-12-05T04:25:22.289Z,96.47
2022-12-05T04:27:58.039Z,97.44
2022-12-05T04:30:33.378Z,97.93
2022-12-05T04:33:11.186Z,98.34
2022-12-05T04:35:48.027Z,98.84
2022-12-05T04:38:27.396Z,98.23
2022-12-05T04:41:02.314Z,97.80
2022-12-05T04:43:38.364Z,97.83
2022-12-05T04:46:13.060Z,98.35
2022-12-05T04:48:46.352Z,98.52
2022-12-05T04:51:21.909Z,98.63
2022-12-05T04:53:59.723Z,98.77
2022-12-05T04:56:33.608Z,98.36
2022-12-05T04:59:03.958Z,98.28
2022-12-05T05:01:40.386Z,99.08
2022-12-05T05:04:16.855Z,99.13
2022-12-05T05:06:47.363Z,100.00
2022-12-05T05:09:20.474Z,100.00
2022-12-05T05:11:50.945Z,100.00
2022-12-05T05:14:21.325Z,100.00
2022-12-05T05:16:51.638Z,100.00
2022-12-05T05:19:21.985Z,100.00
2022-12-05T05:21:52.529Z,100.00
2022-12-05T05:24:26.502Z,100.00
2022-12-05T05:26:57.646Z,100.00
2022-12-05T05:29:28.145Z,100.00
2022-12-05T05:31:58.383Z,100.00
2022-12-05T05:34:28.882Z,100.00
2022-12-05T05:36:59.358Z,100.00
2022-12-05T05:39:32.432Z,100.00
2022-12-05T05:42:02.771Z,100.00
2022-12-05T05:44:33.037Z,100.00
2022-12-05T05:47:03.434Z,100.00
2022-12-05T05:49:34.119Z,100.00
2022-12-05T05:52:04.522Z,100.00
2022-12-05T05:54:37.403Z,100.00
2022-12-05T05:57:07.958Z,100.00
2022-12-05T05:59:38.457Z,100.00
2022-12-05T06:02:09.931Z,100.00
2022-12-05T06:04:40.534Z,100.00
2022-12-05T06:07:10.856Z,100.00
2022-12-05T06:09:43.822Z,100.00
2022-12-05T06:12:14.631Z,100.00
2022-12-05T06:14:45.098Z,100.00
2022-12-05T06:17:15.589Z,100.00
2022-12-05T06:19:46.177Z,100.00
2022-12-05T06:22:16.879Z,100.00
2022-12-05T06:24:49.925Z,100.00
2022-12-05T06:27:20.196Z,100.00
2022-12-05T06:29:50.571Z,100.00
2022-12-05T06:32:20.880Z,99.71
2022-12-05T06:34:51.149Z,99.62
2022-12-05T06:37:21.487Z,99.20
2022-12-05T06:39:55.083Z,99.28
2022-12-05T06:42:25.445Z,99.67
2022-12-05T06:44:55.703Z,99.81
2022-12-05T06:47:26.072Z,99.05
2022-12-05T06:49:56.714Z,98.72
2022-12-05T06:52:27.307Z,99.48
2022-12-05T06:55:00.278Z,99.78
2022-12-05T06:57:32.045Z,99.74
2022-12-05T07:00:24.795Z,99.49
2022-12-05T07:02:53.456Z,99.30
2022-12-05T07:05:23.909Z,98.86
2022-12-05T07:07:54.334Z,98.56
2022-12-05T07:10:27.302Z,98.09
2022-12-05T07:12:57.682Z,97.73
2022-12-05T07:15:28.027Z,98.28
2022-12-05T07:17:58.319Z,98.12
2022-12-05T07:20:43.125Z,97.74
2022-12-05T07:23:18.908Z,97.96
2022-12-05T07:25:51.827Z,98.35
2022-12-05T07:28:22.210Z,99.01
2022-12-05T07:30:52.682Z,99.23
2022-12-05T07:33:22.962Z,99.37
2022-12-05T07:35:53.292Z,99.63
2022-12-05T07:38:23.593Z,99.58
2022-12-05T07:40:56.555Z,99.81
2022-12-05T07:43:27.221Z,99.81
2022-12-05T07:45:57.572Z,99.92
2022-12-05T07:48:27.902Z,99.91
2022-12-05T07:50:58.233Z,99.54
2022-12-05T07:53:28.530Z,99.83
2022-12-05T07:56:03.191Z,99.71
2022-12-05T07:58:34.175Z,99.70
2022-12-05T08:01:11.251Z,99.22
2022-12-05T08:03:41.918Z,99.08
2022-12-05T08:06:15.410Z,98.65
2022-12-05T08:08:49.989Z,98.74
2022-12-05T08:11:26.688Z,98.60
2022-12-05T08:13:57.810Z,98.37
2022-12-05T08:16:30.563Z,98.06
2022-12-05T08:19:03.431Z,97.80
2022-12-05T08:21:34.067Z,97.29
2022-12-05T08:24:06.716Z,96.92
2022-12-05T08:26:40.670Z,97.00
2022-12-05T08:29:13.516Z,97.07
2022-12-05T08:31:47.295Z,96.91
2022-12-05T08:34:18.729Z,96.76
2022-12-05T08:36:49.291Z,96.42
2022-12-05T08:39:22.473Z,96.72
2022-12-05T08:41:55.339Z,97.40
2022-12-05T08:44:25.686Z,97.37
2022-12-05T08:46:56.211Z,96.64
2022-12-05T08:49:26.531Z,95.98
2022-12-05T08:51:56.905Z,95.78
2022-12-05T08:54:27.184Z,95.95
2022-12-05T08:57:00.121Z,95.92
2022-12-05T08:59:30.601Z,95.99
2022-12-05T09:02:01.083Z,95.73
2022-12-05T09:04:31.373Z,95.32
2022-12-05T09:07:04.770Z,95.27
2022-12-05T09:09:35.556Z,94.95
2022-12-05T09:12:08.950Z,94.55
2022-12-05T09:14:39.299Z,94.33
2022-12-05T09:17:09.595Z,93.37
2022-12-05T09:19:39.908Z,93.31
2022-12-05T09:22:10.233Z,93.21
2022-12-05T09:24:40.901Z,92.33
2022-12-05T09:27:13.901Z,92.21
2022-12-05T09:29:44.478Z,92.35
2022-12-05T09:32:15.072Z,91.68
2022-12-05T09:34:45.688Z,91.45
2022-12-05T09:37:38.248Z,90.51
2022-12-05T09:40:08.275Z,90.54
2022-12-05T09:42:57.491Z,89.43
2022-12-05T09:45:32.349Z,89.59
2022-12-05T09:48:09.531Z,89.50
2022-12-05T09:50:52.203Z,88.67
2022-12-05T09:53:31.989Z,88.48
2022-12-05T09:56:08.120Z,88.22
2022-12-05T09:58:48.094Z,88.14
2022-12-05T10:01:41.706Z,87.69
2022-12-05T10:04:44.939Z,87.43
2022-12-05T10:07:25.337Z,87.55
2022-12-05T10:10:20.369Z,87.88
2022-12-05T10:13:08.540Z,87.69
2022-12-05T10:15:47.839Z,87.87
2022-12-05T10:18:32.959Z,88.59
2022-12-05T10:21:09.187Z,88.19
2022-12-05T10:23:59.137Z,87.95
2022-12-05T10:26:33.942Z,88.28
2022-12-05T10:29:22.431Z,87.89
2022-12-05T10:32:04.569Z,87.76
2022-12-05T10:34:41.529Z,87.88
2022-12-05T10:37:20.646Z,87.88
2022-12-05T10:39:52.345Z,87.46
2022-12-05T10:42:28.582Z,87.02
2022-12-05T10:45:03.006Z,87.44
2022-12-05T10:47:37.214Z,87.00
2022-12-05T10:50:24.872Z,86.70
2022-12-05T10:52:56.791Z,86.74
2022-12-05T10:55:32.969Z,86.52
2022-12-05T10:58:17.785Z,86.65
2022-12-05T11:00:52.155Z,86.37
2022-12-05T11:03:30.725Z,86.23
2022-12-05T11:06:04.199Z,86.17
2022-12-05T11:09:03.163Z,85.73
2022-12-05T11:11:29.804Z,85.20
2022-12-05T11:14:03.943Z,85.53
2022-12-05T11:16:38.238Z,85.56
2022-12-05T11:19:30.663Z,86.26
2022-12-05T11:22:01.571Z,86.21
2022-12-05T11:24:34.720Z,86.71
2022-12-05T11:27:27.496Z,87.49
2022-12-05T11:30:02.527Z,89.40
2022-12-05T11:32:36.380Z,90.32
2022-12-05T11:35:28.931Z,91.73
2022-12-05T11:38:03.190Z,92.58
2022-12-05T11:40:42.280Z,92.56
2022-12-05T11:43:36.220Z,92.91
2022-12-05T11:46:24.952Z,93.99
2022-12-05T11:49:14.393Z,95.15
2022-12-05T11:51:54.155Z,94.99
2022-12-05T11:55:06.580Z,94.43
2022-12-05T11:58:02.273Z,95.31
2022-12-05T12:00:42.995Z,95.29
2022-12-05T12:04:05.961Z,95.90
2022-12-05T12:06:53.322Z,96.74
2022-12-05T12:09:41.042Z,96.93
2022-12-05T12:12:25.362Z,97.64
2022-12-05T12:15:11.108Z,98.42
2022-12-05T12:17:52.791Z,97.90
2022-12-05T12:20:37.477Z,98.08
2022-12-05T12:23:35.309Z,97.89
2022-12-05T12:26:15.483Z,97.79
2022-12-05T12:28:56.380Z,97.27
2022-12-05T12:31:58.115Z,96.92
2022-12-05T12:34:50.977Z,97.55
2022-12-05T12:37:30.999Z,97.17
2022-12-05T12:40:16.852Z,97.10
2022-12-05T12:42:59.265Z,97.37
2022-12-05T12:45:53.997Z,98.36
2022-12-05T12:48:43.355Z,99.07
2022-12-05T12:51:17.011Z,99.19
2022-12-05T12:54:03.496Z,99.08
2022-12-05T12:56:46.479Z,99.56
2022-12-05T12:59:35.624Z,100.00
2022-12-05T13:02:15.547Z,99.42
2022-12-05T13:04:53.255Z,99.22
2022-12-05T13:07:31.494Z,98.81
2022-12-05T13:10:07.109Z,99.30
2022-12-05T13:12:44.261Z,99.59
2022-12-05T13:15:19.930Z,99.31
2022-12-05T13:17:52.376Z,98.90
2022-12-05T13:20:26.164Z,98.13
2022-12-05T13:23:00.897Z,97.52
2022-12-05T13:25:39.078Z,97.13
2022-12-05T13:28:30.611Z,97.52
2022-12-05T13:31:05.913Z,97.73
2022-12-05T13:33:39.934Z,97.67
2022-12-05T13:36:26.328Z,97.58
2022-12-05T13:39:17.207Z,97.21
2022-12-05T13:42:02.670Z,97.75
2022-12-05T13:44:41.742Z,96.95
2022-12-05T13:47:29.646Z,96.79
2022-12-05T13:50:10.547Z,96.50
2022-12-05T13:52:49.332Z,96.33
2022-12-05T13:55:35.609Z,97.01
2022-12-05T13:58:07.538Z,96.40
2022-12-05T14:00:40.626Z,96.24
2022-12-05T14:03:20.683Z,96.69
2022-12-05T14:05:54.372Z,95.47
2022-12-05T14:08:57.195Z,95.23
2022-12-05T14:11:27.663Z,95.35
2022-12-05T14:14:04.348Z,95.11
2022-12-05T14:16:49.533Z,94.32
2022-12-05T14:20:08.083Z,94.22
2022-12-05T14:23:11.579Z,94.36
2022-12-05T14:26:08.699Z,93.42
2022-12-05T14:29:06.963Z,95.27
2022-12-05T14:31:53.859Z,95.17
2022-12-05T14:34:29.332Z,95.51
2022-12-05T14:37:04.535Z,96.09
2022-12-05T14:39:44.052Z,96.61
2022-12-05T14:42:38.445Z,96.84
2022-12-05T14:45:31.312Z,96.07
2022-12-05T14:48:06.423Z,95.65
2022-12-05T14:50:45.149Z,95.58
2022-12-05T14:53:28.843Z,96.24
2022-12-05T14:56:09.031Z,96.72
2022-12-05T14:58:46.637Z,96.43
2022-12-05T15:01:21.834Z,96.65
2022-12-05T15:04:21.317Z,96.28
2022-12-05T15:06:56.974Z,96.86
2022-12-05T15:09:59.779Z,96.37
2022-12-05T15:12:37.038Z,96.53
2022-12-05T15:15:17.587Z,96.63
2022-12-05T15:17:52.945Z,97.11
2022-12-05T15:20:40.781Z,97.24
2022-12-05T15:23:46.232Z,97.20
2022-12-05T15:29:19.000Z,95.79
2022-12-05T15:31:52.610Z,95.36
2022-12-05T15:34:30.146Z,95.61
2022-12-05T15:37:09.670Z,95.42
2022-12-05T15:39:56.935Z,95.55
2022-12-05T15:42:30.482Z,95.25
2022-12-05T15:45:21.806Z,94.99
2022-12-05T15:47:53.825Z,96.13
2022-12-05T15:50:31.733Z,96.84
2022-12-05T15:53:08.672Z,97.05
2022-12-05T15:55:45.408Z,96.97
2022-12-05T15:58:26.385Z,97.12
2022-12-05T16:01:03.253Z,97.69
2022-12-05T16:03:48.499Z,98.37
2022-12-05T16:06:25.866Z,99.54
2022-12-05T16:09:00.648Z,99.85
2022-12-05T16:11:31.167Z,99.97
2022-12-05T16:14:06.159Z,100.00
2022-12-05T16:16:39.408Z,100.00
2022-12-05T16:19:17.702Z,100.00
2022-12-05T16:22:01.187Z,100.00
2022-12-05T16:24:41.849Z,100.00
2022-12-05T16:27:20.184Z,100.00
2022-12-05T16:29:50.544Z,100.00
2022-12-05T16:32:26.982Z,100.00
2022-12-05T16:34:57.367Z,100.00
2022-12-05T16:37:30.613Z,100.00
2022-12-05T16:40:03.561Z,100.00
2022-12-05T16:42:40.858Z,100.00
2022-12-05T16:45:41.483Z,100.00
2022-12-05T16:48:22.781Z,100.00
2022-12-05T16:50:55.879Z,100.00
2022-12-05T16:53:35.191Z,100.00
2022-12-05T16:56:11.151Z,100.00
2022-12-05T16:58:41.466Z,100.00
2022-12-05T17:01:20.700Z,100.00
2022-12-05T17:03:51.174Z,100.00
2022-12-05T17:06:23.340Z,100.00
2022-12-05T17:08:54.545Z,100.00
2022-12-05T17:11:31.024Z,100.00
2022-12-05T17:14:02.629Z,100.00
2022-12-05T17:16:33.062Z,100.00
2022-12-05T17:19:04.019Z,100.00
2022-12-05T17:21:36.643Z,100.00
2022-12-05T17:24:07.616Z,100.00
2022-12-05T17:26:40.614Z,100.00
2022-12-05T17:29:11.761Z,100.00
2022-12-05T17:31:41.875Z,100.00
2022-12-05T17:34:21.271Z,100.00
2022-12-05T17:36:51.548Z,100.00
2022-12-05T17:39:27.868Z,100.00
2022-12-05T17:42:01.449Z,100.00
2022-12-05T17:44:31.987Z,100.00
2022-12-05T17:47:07.792Z,100.00
2022-12-05T17:49:38.535Z,100.00
2022-12-05T17:52:24.315Z,100.00
2022-12-05T17:54:54.644Z,100.00
2022-12-05T17:57:27.623Z,100.00
2022-12-05T17:59:58.199Z,100.00
2022-12-05T18:02:28.590Z,100.00
2022-12-05T18:04:59.503Z,100.00
2022-12-05T18:07:29.885Z,100.00
2022-12-05T18:10:00.361Z,100.00
2022-12-05T18:12:33.335Z,100.00
2022-12-05T18:15:03.677Z,100.00
2022-12-05T18:17:34.298Z,100.00
2022-12-05T18:20:04.950Z,100.00
2022-12-05T18:22:35.474Z,100.00
2022-12-05T18:25:06.256Z,100.00
2022-12-05T18:27:40.146Z,100.00
2022-12-05T18:30:12.269Z,100.00
2022-12-05T18:32:42.561Z,100.00
2022-12-05T18:35:15.836Z,100.00
2022-12-05T18:37:46.105Z,100.00
2022-12-05T18:40:16.945Z,100.00
2022-12-05T18:42:49.871Z,100.00
2022-12-05T18:45:21.579Z,100.00
2022-12-05T18:47:54.685Z,100.00
2022-12-05T18:50:27.566Z,100.00
2022-12-05T18:52:58.579Z,100.00
2022-12-05T18:55:58.003Z,100.00
2022-12-05T18:58:22.674Z,99.88
2022-12-05T19:00:53.016Z,99.75
2022-12-05T19:03:23.364Z,99.43
2022-12-05T19:05:53.628Z,100.00
2022-12-05T19:08:24.531Z,100.00
2022-12-05T19:10:54.990Z,100.00
2022-12-05T19:13:28.017Z,100.00
2022-12-05T19:16:05.243Z,100.00
2022-12-05T19:18:35.927Z,100.00
2022-12-05T19:21:07.103Z,100.00
2022-12-05T19:23:37.731Z,100.00
2022-12-05T19:26:10.726Z,100.00
2022-12-05T19:28:43.923Z,99.91
2022-12-05T19:31:17.427Z,100.00
2022-12-05T19:33:50.635Z,100.00
2022-12-05T19:36:23.605Z,99.58
2022-12-05T19:38:56.162Z,99.04
2022-12-05T19:41:29.573Z,98.87
2022-12-05T19:44:03.467Z,99.17
2022-12-05T19:46:34.956Z,100.00
2022-12-05T19:49:09.139Z,100.00
2022-12-05T19:51:40.081Z,100.00
2022-12-05T19:54:11.709Z,100.00
2022-12-05T19:56:42.644Z,100.00
2022-12-05T19:59:17.622Z,100.00
2022-12-05T20:01:48.059Z,100.00
2022-12-05T20:04:19.985Z,100.00
2022-12-05T20:06:52.515Z,100.00
2022-12-05T20:09:25.206Z,100.00
2022-12-05T20:11:56.255Z,100.00
2022-12-05T20:14:29.700Z,100.00
2022-12-05T20:17:00.050Z,100.00
2022-12-05T20:19:30.593Z,100.00
2022-12-05T20:22:00.912Z,100.00
2022-12-05T20:24:31.689Z,100.00
2022-12-05T20:27:02.191Z,100.00
2022-12-05T20:29:35.275Z,100.00
2022-12-05T20:32:05.561Z,100.00
2022-12-05T20:34:35.953Z,100.00
2022-12-05T20:37:06.320Z,100.00
2022-12-05T20:39:36.763Z,100.00
2022-12-05T20:42:07.472Z,100.00
2022-12-05T20:44:40.520Z,100.00
2022-12-05T20:47:10.846Z,100.00
2022-12-05T20:49:41.255Z,100.00
2022-12-05T20:52:11.623Z,100.00
2022-12-05T20:54:41.930Z,100.00
2022-12-05T20:57:12.511Z,100.00
2022-12-05T20:59:45.659Z,100.00
2022-12-05T21:02:16.074Z,100.00
2022-12-05T21:04:46.436Z,100.00
2022-12-05T21:07:16.773Z,100.00
2022-12-05T21:09:47.183Z,100.00
2022-12-05T21:12:17.410Z,100.00
2022-12-05T21:14:50.930Z,100.00
2022-12-05T21:17:21.984Z,100.00
2022-12-05T21:19:52.365Z,100.00
2022-12-05T21:22:22.717Z,100.00
2022-12-05T21:24:53.112Z,100.00
2022-12-05T21:27:23.565Z,100.00
2022-12-05T21:29:56.687Z,100.00
2022-12-05T21:32:27.113Z,100.00
2022-12-05T21:34:57.597Z,100.00
2022-12-05T21:37:27.970Z,100.00
2022-12-05T21:39:58.935Z,100.00
2022-12-05T21:42:29.517Z,100.00
2022-12-05T21:45:02.724Z,100.00
2022-12-05T21:47:33.178Z,100.00
2022-12-05T21:50:03.457Z,100.00
2022-12-05T21:52:39.551Z,100.00
2022-12-05T21:55:11.525Z,100.00
2022-12-05T21:57:41.993Z,100.00
2022-12-05T22:00:16.774Z,100.00
2022-12-05T22:02:47.190Z,100.00
2022-12-05T22:05:17.804Z,100.00
2022-12-05T22:07:48.232Z,100.00
2022-12-05T22:10:18.730Z,100.00
2022-12-05T22:12:49.186Z,99.71
2022-12-05T22:15:22.075Z,100.00
2022-12-05T22:17:52.305Z,99.08
2022-12-05T22:20:22.666Z,99.21
2022-12-05T22:22:52.997Z,98.75
2022-12-05T22:25:23.336Z,98.32
2022-12-05T22:27:53.611Z,97.98
2022-12-05T22:30:26.567Z,98.18
2022-12-05T22:32:57.259Z,97.80
2022-12-05T22:35:27.629Z,97.50
2022-12-05T22:37:57.976Z,97.72
2022-12-05T22:40:28.372Z,97.81
2022-12-05T22:42:58.613Z,97.87
2022-12-05T22:45:31.556Z,98.51
2022-12-05T22:48:02.005Z,99.15
2022-12-05T22:50:32.500Z,99.75
2022-12-05T22:53:03.095Z,100.00
2022-12-05T22:55:34.733Z,100.00
2022-12-05T22:58:05.067Z,100.00
2022-12-05T23:00:38.360Z,100.00
2022-12-05T23:03:09.594Z,100.00
2022-12-05T23:05:42.993Z,100.00
2022-12-05T23:08:14.711Z,100.00
2022-12-05T23:10:45.093Z,100.00
2022-12-05T23:13:15.521Z,100.00
2022-12-05T23:15:48.603Z,100.00
2022-12-05T23:18:18.917Z,100.00
2022-12-05T23:20:49.451Z,100.00
2022-12-05T23:23:20.144Z,100.00
2022-12-05T23:25:51.040Z,100.00
2022-12-05T23:28:21.366Z,100.00
2022-12-05T23:30:54.260Z,100.00
2022-12-05T23:33:24.659Z,100.00
2022-12-05T23:35:57.126Z,100.00
2022-12-05T23:38:27.741Z,100.00
2022-12-05T23:41:02.998Z,100.00
2022-12-05T23:43:35.173Z,100.00
2022-12-05T23:46:09.446Z,100.00
2022-12-05T23:48:40.177Z,100.00
2022-12-05T23:51:14.753Z,99.95
2022-12-05T23:53:47.429Z,100.00
2022-12-05T23:56:20.209Z,100.00
2022-12-05T23:58:50.723Z,100.00
